sensor_id;sensor_type;location;lat;lon;timestamp;pressure;altitude;pressure_sealevel;temperature;humidity
60437;BME280;46289;51.992;4.498;2023-05-24T00:01:40;102741.31;;;8.16;81.83
60437;BME280;46289;51.992;4.498;2023-05-24T00:03:45;102736.94;;;8.10;82.95
60437;BME280;46289;51.992;4.498;2023-05-24T00:05:52;102742.19;;;8.12;81.09
60437;BME280;46289;51.992;4.498;2023-05-24T00:08:00;102737.81;;;8.08;81.47
60437;BME280;46289;51.992;4.498;2023-05-24T00:10:07;102729.97;;;8.05;81.96
60437;BME280;46289;51.992;4.498;2023-05-24T00:12:12;102730.00;;;8.03;81.48
60437;BME280;46289;51.992;4.498;2023-05-24T00:14:18;102727.34;;;7.99;81.27
60437;BME280;46289;51.992;4.498;2023-05-24T00:16:23;102722.97;;;7.98;81.78
60437;BME280;46289;51.992;4.498;2023-05-24T00:18:29;102718.63;;;7.90;84.12
60437;BME280;46289;51.992;4.498;2023-05-24T00:20:34;102718.63;;;7.90;83.92
60437;BME280;46289;51.992;4.498;2023-05-24T00:22:40;102721.22;;;7.89;83.96
60437;BME280;46289;51.992;4.498;2023-05-24T00:24:48;102715.13;;;7.88;83.22
60437;BME280;46289;51.992;4.498;2023-05-24T00:26:59;102711.66;;;7.91;83.96
60437;BME280;46289;51.992;4.498;2023-05-24T00:29:04;102711.63;;;7.86;84.44
60437;BME280;46289;51.992;4.498;2023-05-24T00:31:09;102712.50;;;7.85;83.95
60437;BME280;46289;51.992;4.498;2023-05-24T00:33:14;102716.88;;;7.83;83.93
60437;BME280;46289;51.992;4.498;2023-05-24T00:35:20;102723.84;;;7.81;84.37
60437;BME280;46289;51.992;4.498;2023-05-24T00:37:25;102718.59;;;7.81;83.97
60437;BME280;46289;51.992;4.498;2023-05-24T00:39:34;102718.59;;;7.78;83.61
60437;BME280;46289;51.992;4.498;2023-05-24T00:41:42;102715.09;;;7.76;84.05
60437;BME280;46289;51.992;4.498;2023-05-24T00:43:47;102716.84;;;7.73;85.46
60437;BME280;46289;51.992;4.498;2023-05-24T00:46:14;102721.22;;;7.67;85.00
60437;BME280;46289;51.992;4.498;2023-05-24T00:48:20;102722.09;;;7.66;85.17
60437;BME280;46289;51.992;4.498;2023-05-24T00:50:30;102716.81;;;7.63;85.77
60437;BME280;46289;51.992;4.498;2023-05-24T00:52:35;102720.31;;;7.61;85.25
60437;BME280;46289;51.992;4.498;2023-05-24T00:54:41;102723.81;;;7.60;84.81
60437;BME280;46289;51.992;4.498;2023-05-24T00:56:52;102721.22;;;7.58;86.13
60437;BME280;46289;51.992;4.498;2023-05-24T00:58:59;102723.81;;;7.58;85.28
60437;BME280;46289;51.992;4.498;2023-05-24T01:01:05;102712.47;;;7.59;85.24
60437;BME280;46289;51.992;4.498;2023-05-24T01:03:10;102722.06;;;7.59;85.22
60437;BME280;46289;51.992;4.498;2023-05-24T01:05:16;102725.53;;;7.58;86.46
60437;BME280;46289;51.992;4.498;2023-05-24T01:07:25;102715.09;;;7.59;86.12
60437;BME280;46289;51.992;4.498;2023-05-24T01:09:36;102714.22;;;7.56;85.17
60437;BME280;46289;51.992;4.498;2023-05-24T01:11:59;102715.97;;;7.51;85.28
60437;BME280;46289;51.992;4.498;2023-05-24T01:14:13;102709.84;;;7.48;86.43
60437;BME280;46289;51.992;4.498;2023-05-24T01:16:30;102710.72;;;7.46;87.36
60437;BME280;46289;51.992;4.498;2023-05-24T01:18:45;102709.81;;;7.47;87.24
60437;BME280;46289;51.992;4.498;2023-05-24T01:21:00;102713.31;;;7.46;86.32
60437;BME280;46289;51.992;4.498;2023-05-24T01:23:17;102717.66;;;7.42;86.72
60437;BME280;46289;51.992;4.498;2023-05-24T01:25:44;102708.94;;;7.40;86.63
60437;BME280;46289;51.992;4.498;2023-05-24T01:27:53;102718.53;;;7.40;87.37
60437;BME280;46289;51.992;4.498;2023-05-24T01:30:00;102722.88;;;7.39;86.16
60437;BME280;46289;51.992;4.498;2023-05-24T01:32:06;102712.41;;;7.39;86.84
60437;BME280;46289;51.992;4.498;2023-05-24T01:34:12;102709.81;;;7.39;87.35
60437;BME280;46289;51.992;4.498;2023-05-24T01:36:20;102707.19;;;7.36;86.20
60437;BME280;46289;51.992;4.498;2023-05-24T01:38:25;102711.53;;;7.36;87.07
60437;BME280;46289;51.992;4.498;2023-05-24T01:40:31;102707.19;;;7.39;86.83
60437;BME280;46289;51.992;4.498;2023-05-24T01:42:43;102708.06;;;7.35;86.97
60437;BME280;46289;51.992;4.498;2023-05-24T01:44:59;102711.53;;;7.34;87.54
60437;BME280;46289;51.992;4.498;2023-05-24T01:47:18;102709.78;;;7.30;87.75
60437;BME280;46289;51.992;4.498;2023-05-24T01:49:33;102704.53;;;7.25;87.88
60437;BME280;46289;51.992;4.498;2023-05-24T01:51:48;102705.41;;;7.24;87.79
60437;BME280;46289;51.992;4.498;2023-05-24T01:53:55;102703.66;;;7.23;87.32
60437;BME280;46289;51.992;4.498;2023-05-24T01:56:05;102707.16;;;7.22;88.80
60437;BME280;46289;51.992;4.498;2023-05-24T01:58:12;102703.69;;;7.28;88.07
60437;BME280;46289;51.992;4.498;2023-05-24T02:00:22;102706.28;;;7.25;87.67
60437;BME280;46289;51.992;4.498;2023-05-24T02:02:31;102699.28;;;7.21;87.57
60437;BME280;46289;51.992;4.498;2023-05-24T02:04:37;102704.53;;;7.19;87.75
60437;BME280;46289;51.992;4.498;2023-05-24T02:06:42;102708.00;;;7.17;87.66
60437;BME280;46289;51.992;4.498;2023-05-24T02:08:49;102705.38;;;7.14;88.53
60437;BME280;46289;51.992;4.498;2023-05-24T02:10:58;102703.63;;;7.14;87.58
60437;BME280;46289;51.992;4.498;2023-05-24T02:13:04;102700.16;;;7.17;88.34
60437;BME280;46289;51.992;4.498;2023-05-24T02:15:10;102697.56;;;7.20;88.71
60437;BME280;46289;51.992;4.498;2023-05-24T02:17:19;102702.78;;;7.20;88.00
60437;BME280;46289;51.992;4.498;2023-05-24T02:19:29;102708.00;;;7.20;88.85
60437;BME280;46289;51.992;4.498;2023-05-24T02:21:36;102705.41;;;7.20;87.60
60437;BME280;46289;51.992;4.498;2023-05-24T02:23:42;102691.44;;;7.18;87.94
60437;BME280;46289;51.992;4.498;2023-05-24T02:25:47;102694.91;;;7.18;87.93
60437;BME280;46289;51.992;4.498;2023-05-24T02:27:52;102693.19;;;7.17;87.95
60437;BME280;46289;51.992;4.498;2023-05-24T02:29:58;102700.16;;;7.14;88.21
60437;BME280;46289;51.992;4.498;2023-05-24T02:32:03;102695.78;;;7.11;88.36
60437;BME280;46289;51.992;4.498;2023-05-24T02:34:12;102701.84;;;7.06;89.58
60437;BME280;46289;51.992;4.498;2023-05-24T02:36:17;102696.59;;;7.06;89.43
60437;BME280;46289;51.992;4.498;2023-05-24T02:38:24;102700.13;;;7.09;89.61
60437;BME280;46289;51.992;4.498;2023-05-24T02:40:30;102694.91;;;7.06;89.26
60437;BME280;46289;51.992;4.498;2023-05-24T02:42:39;102700.13;;;7.06;89.82
60437;BME280;46289;51.992;4.498;2023-05-24T02:44:44;102700.06;;;7.00;91.04
60437;BME280;46289;51.992;4.498;2023-05-24T02:46:53;102694.00;;;7.01;89.49
60437;BME280;46289;51.992;4.498;2023-05-24T02:48:58;102698.38;;;7.00;88.94
60437;BME280;46289;51.992;4.498;2023-05-24T02:51:06;102707.06;;;6.99;90.44
60437;BME280;46289;51.992;4.498;2023-05-24T02:53:11;102712.28;;;6.98;89.28
60437;BME280;46289;51.992;4.498;2023-05-24T02:55:16;102708.75;;;6.94;90.33
60437;BME280;46289;51.992;4.498;2023-05-24T02:57:21;102706.16;;;6.94;90.68
60437;BME280;46289;51.992;4.498;2023-05-24T02:59:26;102705.25;;;6.92;89.94
60437;BME280;46289;51.992;4.498;2023-05-24T03:01:32;102700.03;;;6.89;90.64
60437;BME280;46289;51.992;4.498;2023-05-24T03:03:38;102705.25;;;6.89;91.07
60437;BME280;46289;51.992;4.498;2023-05-24T03:05:43;102707.00;;;6.89;91.54
60437;BME280;46289;51.992;4.498;2023-05-24T03:07:51;102701.78;;;6.92;91.10
60437;BME280;46289;51.992;4.498;2023-05-24T03:09:58;102700.91;;;6.91;89.84
60437;BME280;46289;51.992;4.498;2023-05-24T03:12:05;102697.44;;;6.92;89.91
60437;BME280;46289;51.992;4.498;2023-05-24T03:14:11;102697.44;;;6.92;90.27
60437;BME280;46289;51.992;4.498;2023-05-24T03:16:18;102693.06;;;6.91;89.75
60437;BME280;46289;51.992;4.498;2023-05-24T03:18:26;102692.19;;;6.89;89.90
60437;BME280;46289;51.992;4.498;2023-05-24T03:20:31;102688.69;;;6.87;89.82
60437;BME280;46289;51.992;4.498;2023-05-24T03:22:37;102684.34;;;6.89;89.99
60437;BME280;46289;51.992;4.498;2023-05-24T03:24:45;102688.69;;;6.87;90.48
60437;BME280;46289;51.992;4.498;2023-05-24T03:26:52;102693.94;;;6.86;90.74
60437;BME280;46289;51.992;4.498;2023-05-24T03:28:57;102688.69;;;6.84;91.59
60437;BME280;46289;51.992;4.498;2023-05-24T03:31:02;102683.44;;;6.81;90.38
60437;BME280;46289;51.992;4.498;2023-05-24T03:33:07;102686.94;;;6.81;91.13
60437;BME280;46289;51.992;4.498;2023-05-24T03:35:13;102688.69;;;6.82;91.08
60437;BME280;46289;51.992;4.498;2023-05-24T03:37:20;102682.56;;;6.79;91.87
60437;BME280;46289;51.992;4.498;2023-05-24T03:39:28;102679.94;;;6.79;91.67
60437;BME280;46289;51.992;4.498;2023-05-24T03:41:37;102689.56;;;6.80;90.76
60437;BME280;46289;51.992;4.498;2023-05-24T03:43:43;102684.31;;;6.80;90.71
60437;BME280;46289;51.992;4.498;2023-05-24T03:45:48;102682.56;;;6.80;90.42
60437;BME280;46289;51.992;4.498;2023-05-24T03:47:56;102681.72;;;6.83;90.56
60437;BME280;46289;51.992;4.498;2023-05-24T03:50:01;102673.88;;;6.83;90.48
60437;BME280;46289;51.992;4.498;2023-05-24T03:52:07;102679.97;;;6.80;91.60
60437;BME280;46289;51.992;4.498;2023-05-24T03:54:12;102683.44;;;6.81;91.90
60437;BME280;46289;51.992;4.498;2023-05-24T03:56:21;102684.31;;;6.81;92.06
60437;BME280;46289;51.992;4.498;2023-05-24T03:58:33;102686.94;;;6.83;93.13
60437;BME280;46289;51.992;4.498;2023-05-24T04:00:40;102681.72;;;6.83;92.17
60437;BME280;46289;51.992;4.498;2023-05-24T04:02:46;102675.63;;;6.89;92.20
60437;BME280;46289;51.992;4.498;2023-05-24T04:04:52;102675.66;;;6.93;91.82
60437;BME280;46289;51.992;4.498;2023-05-24T04:06:57;102673.06;;;6.93;91.79
60437;BME280;46289;51.992;4.498;2023-05-24T04:09:03;102676.56;;;6.95;91.74
60437;BME280;46289;51.992;4.498;2023-05-24T04:11:08;102680.91;;;6.96;92.42
60437;BME280;46289;51.992;4.498;2023-05-24T04:13:14;102682.66;;;6.99;92.17
60437;BME280;46289;51.992;4.498;2023-05-24T04:15:27;102689.66;;;7.04;92.24
60437;BME280;46289;51.992;4.498;2023-05-24T04:17:34;102693.13;;;7.08;92.21
60437;BME280;46289;51.992;4.498;2023-05-24T04:19:41;102698.41;;;7.16;92.43
60437;BME280;46289;51.992;4.498;2023-05-24T04:21:48;102701.91;;;7.25;91.65
60437;BME280;46289;51.992;4.498;2023-05-24T04:23:53;102702.84;;;7.38;91.91
60437;BME280;46289;51.992;4.498;2023-05-24T04:26:01;102699.38;;;7.52;91.87
60437;BME280;46289;51.992;4.498;2023-05-24T04:28:07;102696.78;;;7.67;91.90
60437;BME280;46289;51.992;4.498;2023-05-24T04:30:13;102699.41;;;7.81;91.70
60437;BME280;46289;51.992;4.498;2023-05-24T04:32:21;102702.06;;;7.96;91.22
60437;BME280;46289;51.992;4.498;2023-05-24T04:34:30;102701.16;;;8.08;91.34
60437;BME280;46289;51.992;4.498;2023-05-24T04:36:39;102699.41;;;8.24;91.31
60437;BME280;46289;51.992;4.498;2023-05-24T04:38:45;102695.03;;;8.36;91.27
60437;BME280;46289;51.992;4.498;2023-05-24T04:40:51;102702.91;;;8.52;90.97
60437;BME280;46289;51.992;4.498;2023-05-24T04:43:00;102700.25;;;8.72;91.12
60437;BME280;46289;51.992;4.498;2023-05-24T04:45:08;102694.94;;;8.93;91.09
60437;BME280;46289;51.992;4.498;2023-05-24T04:47:13;102694.00;;;9.05;90.42
60437;BME280;46289;51.992;4.498;2023-05-24T04:49:21;102688.66;;;9.23;89.86
60437;BME280;46289;51.992;4.498;2023-05-24T04:51:29;102693.00;;;9.29;89.51
60437;BME280;46289;51.992;4.498;2023-05-24T04:53:35;102680.66;;;9.45;89.30
60437;BME280;46289;51.992;4.498;2023-05-24T04:55:41;102674.44;;;9.60;88.76
60437;BME280;46289;51.992;4.498;2023-05-24T04:57:46;102684.88;;;9.72;88.46
60437;BME280;46289;51.992;4.498;2023-05-24T04:59:51;102684.72;;;9.89;87.85
60437;BME280;46289;51.992;4.498;2023-05-24T05:01:57;102682.03;;;9.98;86.88
60437;BME280;46289;51.992;4.498;2023-05-24T05:04:02;102688.03;;;10.14;86.50
60437;BME280;46289;51.992;4.498;2023-05-24T05:06:12;102689.63;;;10.32;86.58
60437;BME280;46289;51.992;4.498;2023-05-24T05:08:18;102679.06;;;10.38;85.37
60437;BME280;46289;51.992;4.498;2023-05-24T05:10:24;102680.72;;;10.47;85.18
60437;BME280;46289;51.992;4.498;2023-05-24T05:12:29;102683.25;;;10.56;85.17
60437;BME280;46289;51.992;4.498;2023-05-24T05:14:35;102682.19;;;10.71;85.23
60437;BME280;46289;51.992;4.498;2023-05-24T05:16:41;102689.13;;;10.80;84.19
60437;BME280;46289;51.992;4.498;2023-05-24T05:18:47;102680.88;;;11.07;84.43
60437;BME280;46289;51.992;4.498;2023-05-24T05:20:53;102678.25;;;11.09;83.64
60437;BME280;46289;51.992;4.498;2023-05-24T05:23:00;102687.00;;;11.08;82.94
60437;BME280;46289;51.992;4.498;2023-05-24T05:25:06;102678.75;;;11.34;82.26
60437;BME280;46289;51.992;4.498;2023-05-24T05:27:11;102679.63;;;11.37;82.35
60437;BME280;46289;51.992;4.498;2023-05-24T05:29:16;102681.97;;;11.54;81.32
60437;BME280;46289;51.992;4.498;2023-05-24T05:31:24;102678.94;;;11.80;80.94
60437;BME280;46289;51.992;4.498;2023-05-24T05:33:33;102683.59;;;11.63;80.71
60437;BME280;46289;51.992;4.498;2023-05-24T05:35:39;102688.28;;;11.42;81.62
60437;BME280;46289;51.992;4.498;2023-05-24T05:37:44;102691.59;;;11.57;81.24
60437;BME280;46289;51.992;4.498;2023-05-24T05:39:52;102691.44;;;11.66;81.33
60437;BME280;46289;51.992;4.498;2023-05-24T05:42:00;102695.00;;;11.65;80.85
60437;BME280;46289;51.992;4.498;2023-05-24T05:44:05;102701.97;;;11.68;81.77
60437;BME280;46289;51.992;4.498;2023-05-24T05:46:11;102693.47;;;11.49;81.18
60437;BME280;46289;51.992;4.498;2023-05-24T05:48:18;102699.06;;;11.27;81.75
60437;BME280;46289;51.992;4.498;2023-05-24T05:50:24;102694.44;;;11.43;82.11
60437;BME280;46289;51.992;4.498;2023-05-24T05:52:29;102699.50;;;11.55;81.87
60437;BME280;46289;51.992;4.498;2023-05-24T05:54:34;102709.19;;;11.55;81.98
60437;BME280;46289;51.992;4.498;2023-05-24T05:56:44;102701.53;;;11.38;81.91
60437;BME280;46289;51.992;4.498;2023-05-24T05:58:52;102700.50;;;11.48;82.22
60437;BME280;46289;51.992;4.498;2023-05-24T06:01:00;102701.31;;;11.52;81.94
60437;BME280;46289;51.992;4.498;2023-05-24T06:03:05;102704.13;;;11.39;82.14
60437;BME280;46289;51.992;4.498;2023-05-24T06:05:14;102697.03;;;11.45;82.09
60437;BME280;46289;51.992;4.498;2023-05-24T06:07:20;102706.69;;;11.46;82.05
60437;BME280;46289;51.992;4.498;2023-05-24T06:09:27;102698.78;;;11.46;81.96
60437;BME280;46289;51.992;4.498;2023-05-24T06:11:33;102695.25;;;11.47;81.24
60437;BME280;46289;51.992;4.498;2023-05-24T06:13:41;102699.66;;;11.46;81.80
60437;BME280;46289;51.992;4.498;2023-05-24T06:15:46;102704.00;;;11.49;80.96
60437;BME280;46289;51.992;4.498;2023-05-24T06:17:54;102701.38;;;11.47;80.57
60437;BME280;46289;51.992;4.498;2023-05-24T06:19:59;102703.09;;;11.50;80.33
60437;BME280;46289;51.992;4.498;2023-05-24T06:22:11;102706.38;;;11.65;80.39
60437;BME280;46289;51.992;4.498;2023-05-24T06:24:20;102709.59;;;11.88;79.65
60437;BME280;46289;51.992;4.498;2023-05-24T06:26:29;102707.84;;;11.88;79.04
60437;BME280;46289;51.992;4.498;2023-05-24T06:28:34;102710.50;;;11.85;78.63
60437;BME280;46289;51.992;4.498;2023-05-24T06:30:43;102711.28;;;11.93;77.77
60437;BME280;46289;51.992;4.498;2023-05-24T06:32:48;102708.59;;;11.95;77.60
60437;BME280;46289;51.992;4.498;2023-05-24T06:34:58;102706.88;;;11.94;77.69
60437;BME280;46289;51.992;4.498;2023-05-24T06:37:03;102718.81;;;12.13;76.87
60437;BME280;46289;51.992;4.498;2023-05-24T06:39:11;102712.63;;;12.16;76.31
60437;BME280;46289;51.992;4.498;2023-05-24T06:41:17;102708.06;;;12.27;76.23
60437;BME280;46289;51.992;4.498;2023-05-24T06:43:23;102706.88;;;12.43;76.44
60437;BME280;46289;51.992;4.498;2023-05-24T06:45:29;102707.69;;;12.48;75.47
60437;BME280;46289;51.992;4.498;2023-05-24T06:47:37;102708.75;;;12.38;75.38
60437;BME280;46289;51.992;4.498;2023-05-24T06:49:42;102702.50;;;12.42;75.19
60437;BME280;46289;51.992;4.498;2023-05-24T06:51:52;102702.59;;;12.38;75.29
60437;BME280;46289;51.992;4.498;2023-05-24T06:53:57;102708.03;;;12.28;74.92
60437;BME280;46289;51.992;4.498;2023-05-24T06:56:02;102702.41;;;12.47;74.97
60437;BME280;46289;51.992;4.498;2023-05-24T06:58:07;102709.38;;;12.51;73.20
60437;BME280;46289;51.992;4.498;2023-05-24T07:00:16;102708.53;;;12.49;72.49
60437;BME280;46289;51.992;4.498;2023-05-24T07:02:22;102707.56;;;12.55;72.03
60437;BME280;46289;51.992;4.498;2023-05-24T07:04:34;102707.34;;;12.65;72.37
60437;BME280;46289;51.992;4.498;2023-05-24T07:06:42;102709.56;;;12.87;71.70
60437;BME280;46289;51.992;4.498;2023-05-24T07:08:51;102701.84;;;12.78;71.50
60437;BME280;46289;51.992;4.498;2023-05-24T07:10:56;102704.59;;;13.13;72.00
60437;BME280;46289;51.992;4.498;2023-05-24T07:13:01;102697.66;;;13.09;69.36
60437;BME280;46289;51.992;4.498;2023-05-24T07:15:08;102702.63;;;13.25;68.89
60437;BME280;46289;51.992;4.498;2023-05-24T07:17:14;102707.13;;;13.20;69.38
60437;BME280;46289;51.992;4.498;2023-05-24T07:19:21;102704.91;;;13.42;70.46
60437;BME280;46289;51.992;4.498;2023-05-24T07:24:46;102708.63;;;13.72;68.15
60437;BME280;46289;51.992;4.498;2023-05-24T07:26:52;102712.47;;;13.94;67.36
60437;BME280;46289;51.992;4.498;2023-05-24T07:28:58;102720.03;;;14.10;67.03
60437;BME280;46289;51.992;4.498;2023-05-24T07:31:04;102717.16;;;13.83;66.30
60437;BME280;46289;51.992;4.498;2023-05-24T07:33:12;102710.28;;;13.74;66.33
60437;BME280;46289;51.992;4.498;2023-05-24T07:35:18;102710.59;;;13.99;65.87
60437;BME280;46289;51.992;4.498;2023-05-24T07:37:24;102719.88;;;13.80;65.35
60437;BME280;46289;51.992;4.498;2023-05-24T07:39:30;102720.75;;;13.79;64.95
60437;BME280;46289;51.992;4.498;2023-05-24T07:41:38;102718.25;;;14.10;65.79
60437;BME280;46289;51.992;4.498;2023-05-24T07:43:43;102715.84;;;14.35;65.12
60437;BME280;46289;51.992;4.498;2023-05-24T07:45:49;102715.28;;;14.22;63.94
60437;BME280;46289;51.992;4.498;2023-05-24T07:47:55;102716.06;;;14.26;62.79
60437;BME280;46289;51.992;4.498;2023-05-24T07:50:00;102712.75;;;14.52;60.65
60437;BME280;46289;51.992;4.498;2023-05-24T07:52:05;102714.22;;;14.30;61.06
60437;BME280;46289;51.992;4.498;2023-05-24T07:54:10;102715.38;;;14.54;61.68
60437;BME280;46289;51.992;4.498;2023-05-24T07:56:15;102708.97;;;14.62;62.07
60437;BME280;46289;51.992;4.498;2023-05-24T07:58:26;102715.00;;;14.99;61.61
60437;BME280;46289;51.992;4.498;2023-05-24T08:00:31;102715.31;;;14.57;61.41
60437;BME280;46289;51.992;4.498;2023-05-24T08:02:39;102711.22;;;14.43;60.82
60437;BME280;46289;51.992;4.498;2023-05-24T08:04:45;102717.75;;;14.30;62.53
60437;BME280;46289;51.992;4.498;2023-05-24T08:06:50;102721.47;;;14.21;62.37
60437;BME280;46289;51.992;4.498;2023-05-24T08:08:55;102721.72;;;14.79;62.80
60437;BME280;46289;51.992;4.498;2023-05-24T08:11:03;102726.50;;;14.98;60.65
60437;BME280;46289;51.992;4.498;2023-05-24T08:13:09;102725.28;;;14.78;59.62
60437;BME280;46289;51.992;4.498;2023-05-24T08:15:16;102722.81;;;15.33;60.45
60437;BME280;46289;51.992;4.498;2023-05-24T08:17:25;102719.34;;;15.87;58.10
60437;BME280;46289;51.992;4.498;2023-05-24T08:19:33;102726.56;;;14.96;59.52
60437;BME280;46289;51.992;4.498;2023-05-24T08:21:38;102717.03;;;15.20;59.28
60437;BME280;46289;51.992;4.498;2023-05-24T08:23:44;102714.19;;;14.97;59.48
60437;BME280;46289;51.992;4.498;2023-05-24T08:25:52;102712.44;;;15.25;60.37
60437;BME280;46289;51.992;4.498;2023-05-24T08:28:00;102713.34;;;15.54;60.33
60437;BME280;46289;51.992;4.498;2023-05-24T08:30:06;102708.06;;;15.24;59.72
60437;BME280;46289;51.992;4.498;2023-05-24T08:32:15;102717.44;;;15.34;59.82
60437;BME280;46289;51.992;4.498;2023-05-24T08:34:20;102709.44;;;15.94;57.46
60437;BME280;46289;51.992;4.498;2023-05-24T08:36:25;102713.59;;;15.74;56.36
60437;BME280;46289;51.992;4.498;2023-05-24T08:38:33;102701.44;;;15.67;58.18
60437;BME280;46289;51.992;4.498;2023-05-24T08:40:38;102713.72;;;15.42;58.37
60437;BME280;46289;51.992;4.498;2023-05-24T08:42:45;102711.75;;;14.89;59.76
60437;BME280;46289;51.992;4.498;2023-05-24T08:44:52;102708.84;;;14.98;59.78
60437;BME280;46289;51.992;4.498;2023-05-24T08:47:03;102708.09;;;15.80;57.98
60437;BME280;46289;51.992;4.498;2023-05-24T08:49:11;102701.63;;;16.41;56.84
60437;BME280;46289;51.992;4.498;2023-05-24T08:51:16;102700.69;;;17.16;54.97
60437;BME280;46289;51.992;4.498;2023-05-24T08:53:22;102702.44;;;17.61;53.89
60437;BME280;46289;51.992;4.498;2023-05-24T08:55:29;102701.81;;;17.32;52.74
60437;BME280;46289;51.992;4.498;2023-05-24T08:57:35;102703.75;;;17.05;54.74
60437;BME280;46289;51.992;4.498;2023-05-24T08:59:43;102703.38;;;18.04;51.99
60437;BME280;46289;51.992;4.498;2023-05-24T09:01:52;102700.63;;;18.05;52.16
60437;BME280;46289;51.992;4.498;2023-05-24T09:03:59;102703.97;;;18.10;50.97
60437;BME280;46289;51.992;4.498;2023-05-24T09:06:08;102705.44;;;18.79;50.16
60437;BME280;46289;51.992;4.498;2023-05-24T09:08:13;102698.09;;;19.03;49.91
60437;BME280;46289;51.992;4.498;2023-05-24T09:10:21;102706.09;;;19.22;48.71
60437;BME280;46289;51.992;4.498;2023-05-24T09:12:29;102703.69;;;19.72;49.31
60437;BME280;46289;51.992;4.498;2023-05-24T09:14:41;102702.94;;;18.14;49.20
60437;BME280;46289;51.992;4.498;2023-05-24T09:16:52;102704.34;;;17.35;52.64
60437;BME280;46289;51.992;4.498;2023-05-24T09:18:58;102703.47;;;18.01;50.46
60437;BME280;46289;51.992;4.498;2023-05-24T09:21:07;102702.38;;;18.06;50.27
60437;BME280;46289;51.992;4.498;2023-05-24T09:23:12;102713.53;;;16.79;52.32
60437;BME280;46289;51.992;4.498;2023-05-24T09:25:21;102706.25;;;17.53;52.00
60437;BME280;46289;51.992;4.498;2023-05-24T09:27:27;102700.56;;;18.48;49.50
60437;BME280;46289;51.992;4.498;2023-05-24T09:29:34;102697.66;;;18.33;50.30
60437;BME280;46289;51.992;4.498;2023-05-24T09:31:39;102694.13;;;18.12;49.28
60437;BME280;46289;51.992;4.498;2023-05-24T09:33:47;102689.75;;;17.45;52.16
60437;BME280;46289;51.992;4.498;2023-05-24T09:35:56;102694.78;;;17.53;50.67
60437;BME280;46289;51.992;4.498;2023-05-24T09:38:04;102696.00;;;18.31;50.35
60437;BME280;46289;51.992;4.498;2023-05-24T09:40:16;102700.72;;;17.82;48.95
60437;BME280;46289;51.992;4.498;2023-05-24T09:42:26;102693.34;;;18.31;49.71
60437;BME280;46289;51.992;4.498;2023-05-24T09:44:32;102689.78;;;18.51;48.29
60437;BME280;46289;51.992;4.498;2023-05-24T09:46:38;102682.13;;;17.60;48.96
60437;BME280;46289;51.992;4.498;2023-05-24T09:48:54;102686.03;;;17.51;49.12
60437;BME280;46289;51.992;4.498;2023-05-24T09:51:04;102678.91;;;18.36;49.57
60437;BME280;46289;51.992;4.498;2023-05-24T09:53:19;102681.25;;;18.83;48.01
60437;BME280;46289;51.992;4.498;2023-05-24T09:55:35;102676.94;;;19.55;47.18
60437;BME280;46289;51.992;4.498;2023-05-24T09:57:43;102676.81;;;20.12;45.30
60437;BME280;46289;51.992;4.498;2023-05-24T09:59:52;102678.97;;;20.38;44.03
60437;BME280;46289;51.992;4.498;2023-05-24T10:02:06;102674.94;;;18.45;46.73
60437;BME280;46289;51.992;4.498;2023-05-24T10:04:12;102677.03;;;17.75;49.63
60437;BME280;46289;51.992;4.498;2023-05-24T10:06:22;102670.22;;;19.29;47.29
60437;BME280;46289;51.992;4.498;2023-05-24T10:08:32;102676.84;;;19.39;45.46
60437;BME280;46289;51.992;4.498;2023-05-24T10:10:37;102671.47;;;19.58;46.60
60437;BME280;46289;51.992;4.498;2023-05-24T10:12:43;102671.31;;;19.61;45.33
60437;BME280;46289;51.992;4.498;2023-05-24T10:14:52;102676.38;;;19.12;45.25
60437;BME280;46289;51.992;4.498;2023-05-24T10:16:59;102671.81;;;18.95;47.04
60437;BME280;46289;51.992;4.498;2023-05-24T10:19:05;102676.38;;;18.73;46.54
60437;BME280;46289;51.992;4.498;2023-05-24T10:21:11;102677.22;;;18.13;48.49
60437;BME280;46289;51.992;4.498;2023-05-24T10:23:19;102665.09;;;18.47;47.90
60437;BME280;46289;51.992;4.498;2023-05-24T10:25:28;102672.03;;;18.31;46.89
60437;BME280;46289;51.992;4.498;2023-05-24T10:27:36;102668.38;;;19.85;47.99
60437;BME280;46289;51.992;4.498;2023-05-24T10:29:49;102668.53;;;20.16;43.68
60437;BME280;46289;51.992;4.498;2023-05-24T10:31:56;102665.91;;;20.50;43.04
60437;BME280;46289;51.992;4.498;2023-05-24T10:34:02;102664.72;;;19.51;43.79
60437;BME280;46289;51.992;4.498;2023-05-24T10:36:12;102662.03;;;19.87;42.67
60437;BME280;46289;51.992;4.498;2023-05-24T10:38:22;102659.34;;;20.39;43.08
60437;BME280;46289;51.992;4.498;2023-05-24T10:40:31;102663.88;;;20.88;41.77
60437;BME280;46289;51.992;4.498;2023-05-24T10:42:40;102661.13;;;21.05;41.09
60437;BME280;46289;51.992;4.498;2023-05-24T10:45:32;102651.44;;;21.51;40.82
60437;BME280;46289;51.992;4.498;2023-05-24T10:48:25;102656.09;;;20.00;43.44
60437;BME280;46289;51.992;4.498;2023-05-24T10:54:25;102656.75;;;20.38;42.19
60437;BME280;46289;51.992;4.498;2023-05-24T10:58:11;102651.22;;;21.08;40.85
60437;BME280;46289;51.992;4.498;2023-05-24T11:01:30;102651.75;;;19.80;43.04
60437;BME280;46289;51.992;4.498;2023-05-24T11:03:48;102655.59;;;20.93;41.73
60437;BME280;46289;51.992;4.498;2023-05-24T11:09:46;102661.72;;;21.11;40.00
60437;BME280;46289;51.992;4.498;2023-05-24T11:25:35;102667.00;;;18.64;44.64
60437;BME280;46289;51.992;4.498;2023-05-24T11:28:22;102667.91;;;18.44;43.80
60437;BME280;46289;51.992;4.498;2023-05-24T11:34:10;102670.09;;;19.13;42.98
60437;BME280;46289;51.992;4.498;2023-05-24T11:36:35;102658.91;;;18.67;46.03
60437;BME280;46289;51.992;4.498;2023-05-24T11:39:53;102660.78;;;19.41;44.21
60437;BME280;46289;51.992;4.498;2023-05-24T11:42:45;102650.72;;;19.28;44.76
60437;BME280;46289;51.992;4.498;2023-05-24T11:48:06;102652.16;;;18.79;45.05
60437;BME280;46289;51.992;4.498;2023-05-24T11:51:03;102657.84;;;18.90;46.01